sensor_id;sensor_type;location;lat;lon;timestamp;P1;durP1;ratioP1;P2;durP2;ratioP2
4808;SDS011;2418;49.930;8.606;2022-12-15T00:01:03;31.58;;;19.55;;
4808;SDS011;2418;49.930;8.606;2022-12-15T00:03:47;33.40;;;20.10;;
4808;SDS011;2418;49.930;8.606;2022-12-15T00:06:31;32.57;;;19.13;;
4808;SDS011;2418;49.930;8.606;2022-12-15T00:09:15;32.65;;;19.75;;
4808;SDS011;2418;49.930;8.606;2022-12-15T00:12:00;41.78;;;21.35;;
4808;SDS011;2418;49.930;8.606;2022-12-15T00:14:44;27.90;;;19.00;;
4808;SDS011;2418;49.930;8.606;2022-12-15T00:17:28;32.13;;;19.02;;
4808;SDS011;2418;49.930;8.606;2022-12-15T00:20:12;32.13;;;19.20;;
4808;SDS011;2418;49.930;8.606;2022-12-15T00:22:56;29.17;;;18.33;;
4808;SDS011;2418;49.930;8.606;2022-12-15T00:25:41;29.67;;;18.27;;
4808;SDS011;2418;49.930;8.606;2022-12-15T00:28:26;32.53;;;19.25;;
4808;SDS011;2418;49.930;8.606;2022-12-15T00:31:10;33.85;;;19.23;;
4808;SDS011;2418;49.930;8.606;2022-12-15T00:33:55;38.20;;;19.27;;
4808;SDS011;2418;49.930;8.606;2022-12-15T00:36:39;32.13;;;19.20;;
4808;SDS011;2418;49.930;8.606;2022-12-15T00:39:23;32.30;;;19.90;;
4808;SDS011;2418;49.930;8.606;2022-12-15T00:41:49;31.20;;;20.17;;
4808;SDS011;2418;49.930;8.606;2022-12-15T00:44:14;33.03;;;18.92;;
4808;SDS011;2418;49.930;8.606;2022-12-15T00:46:40;35.77;;;20.63;;
4808;SDS011;2418;49.930;8.606;2022-12-15T00:49:24;29.55;;;19.20;;
4808;SDS011;2418;49.930;8.606;2022-12-15T00:52:10;33.45;;;19.85;;
4808;SDS011;2418;49.930;8.606;2022-12-15T00:54:55;30.90;;;20.02;;
4808;SDS011;2418;49.930;8.606;2022-12-15T00:57:40;26.63;;;17.73;;
4808;SDS011;2418;49.930;8.606;2022-12-15T01:00:24;33.45;;;18.98;;
4808;SDS011;2418;49.930;8.606;2022-12-15T01:03:10;34.53;;;19.52;;
4808;SDS011;2418;49.930;8.606;2022-12-15T01:05:58;33.05;;;19.58;;
4808;SDS011;2418;49.930;8.606;2022-12-15T01:08:43;32.38;;;20.83;;
4808;SDS011;2418;49.930;8.606;2022-12-15T01:11:27;26.90;;;18.67;;
4808;SDS011;2418;49.930;8.606;2022-12-15T01:14:11;34.95;;;18.73;;
4808;SDS011;2418;49.930;8.606;2022-12-15T01:16:56;33.85;;;18.88;;
4808;SDS011;2418;49.930;8.606;2022-12-15T01:19:41;28.98;;;19.77;;
4808;SDS011;2418;49.930;8.606;2022-12-15T01:22:25;29.42;;;19.05;;
4808;SDS011;2418;49.930;8.606;2022-12-15T01:24:51;31.43;;;19.50;;
4808;SDS011;2418;49.930;8.606;2022-12-15T01:27:16;31.67;;;19.50;;
4808;SDS011;2418;49.930;8.606;2022-12-15T01:29:42;33.53;;;18.73;;
4808;SDS011;2418;49.930;8.606;2022-12-15T01:32:08;29.55;;;18.30;;
4808;SDS011;2418;49.930;8.606;2022-12-15T01:34:34;31.97;;;18.63;;
4808;SDS011;2418;49.930;8.606;2022-12-15T01:36:59;30.73;;;18.07;;
4808;SDS011;2418;49.930;8.606;2022-12-15T01:39:25;31.23;;;18.30;;
4808;SDS011;2418;49.930;8.606;2022-12-15T01:42:11;28.53;;;18.50;;
4808;SDS011;2418;49.930;8.606;2022-12-15T01:44:37;34.28;;;19.77;;
4808;SDS011;2418;49.930;8.606;2022-12-15T01:47:03;31.70;;;19.35;;
4808;SDS011;2418;49.930;8.606;2022-12-15T01:49:29;32.95;;;19.15;;
4808;SDS011;2418;49.930;8.606;2022-12-15T01:51:58;36.85;;;20.23;;
4808;SDS011;2418;49.930;8.606;2022-12-15T01:54:26;30.60;;;18.90;;
4808;SDS011;2418;49.930;8.606;2022-12-15T01:57:01;35.27;;;19.50;;
4808;SDS011;2418;49.930;8.606;2022-12-15T01:59:36;35.88;;;19.30;;
4808;SDS011;2418;49.930;8.606;2022-12-15T02:02:08;31.00;;;19.80;;
4808;SDS011;2418;49.930;8.606;2022-12-15T02:04:34;28.50;;;18.67;;
4808;SDS011;2418;49.930;8.606;2022-12-15T02:07:01;33.47;;;19.90;;
4808;SDS011;2418;49.930;8.606;2022-12-15T02:09:27;36.72;;;20.45;;
4808;SDS011;2418;49.930;8.606;2022-12-15T02:23:05;36.93;;;21.27;;
4808;SDS011;2418;49.930;8.606;2022-12-15T02:31:51;37.38;;;19.50;;
4808;SDS011;2418;49.930;8.606;2022-12-15T02:34:42;30.52;;;19.30;;
4808;SDS011;2418;49.930;8.606;2022-12-15T02:37:11;33.80;;;20.63;;
4808;SDS011;2418;49.930;8.606;2022-12-15T02:39:37;37.85;;;20.52;;
4808;SDS011;2418;49.930;8.606;2022-12-15T02:42:03;28.60;;;19.52;;
4808;SDS011;2418;49.930;8.606;2022-12-15T02:44:38;32.60;;;19.77;;
4808;SDS011;2418;49.930;8.606;2022-12-15T02:53:32;31.55;;;18.95;;
4808;SDS011;2418;49.930;8.606;2022-12-15T03:01:33;28.98;;;19.05;;
4808;SDS011;2418;49.930;8.606;2022-12-15T03:04:07;31.50;;;18.65;;
4808;SDS011;2418;49.930;8.606;2022-12-15T03:06:34;28.08;;;18.50;;
4808;SDS011;2418;49.930;8.606;2022-12-15T03:09:00;29.73;;;18.75;;
4808;SDS011;2418;49.930;8.606;2022-12-15T03:11:25;30.35;;;17.98;;
4808;SDS011;2418;49.930;8.606;2022-12-15T03:13:51;34.80;;;18.60;;
4808;SDS011;2418;49.930;8.606;2022-12-15T03:16:18;33.20;;;18.43;;
4808;SDS011;2418;49.930;8.606;2022-12-15T03:18:44;34.50;;;18.92;;
4808;SDS011;2418;49.930;8.606;2022-12-15T03:21:10;31.07;;;18.37;;
4808;SDS011;2418;49.930;8.606;2022-12-15T03:23:35;35.35;;;19.60;;
4808;SDS011;2418;49.930;8.606;2022-12-15T03:26:01;36.85;;;19.58;;
4808;SDS011;2418;49.930;8.606;2022-12-15T03:28:27;34.10;;;19.33;;
4808;SDS011;2418;49.930;8.606;2022-12-15T03:30:52;33.13;;;19.00;;
4808;SDS011;2418;49.930;8.606;2022-12-15T03:33:18;34.20;;;20.87;;
4808;SDS011;2418;49.930;8.606;2022-12-15T03:35:43;36.90;;;19.60;;
4808;SDS011;2418;49.930;8.606;2022-12-15T03:38:09;36.43;;;20.40;;
4808;SDS011;2418;49.930;8.606;2022-12-15T03:40:35;33.97;;;20.10;;
4808;SDS011;2418;49.930;8.606;2022-12-15T03:43:00;37.50;;;20.77;;
4808;SDS011;2418;49.930;8.606;2022-12-15T03:45:26;32.20;;;20.30;;
4808;SDS011;2418;49.930;8.606;2022-12-15T03:47:53;36.70;;;21.20;;
4808;SDS011;2418;49.930;8.606;2022-12-15T03:50:21;36.50;;;20.20;;
4808;SDS011;2418;49.930;8.606;2022-12-15T03:52:52;36.55;;;20.08;;
4808;SDS011;2418;49.930;8.606;2022-12-15T03:55:20;30.15;;;19.33;;
4808;SDS011;2418;49.930;8.606;2022-12-15T03:57:46;41.83;;;20.30;;
4808;SDS011;2418;49.930;8.606;2022-12-15T04:00:12;31.65;;;19.45;;
4808;SDS011;2418;49.930;8.606;2022-12-15T04:02:39;32.65;;;19.80;;
4808;SDS011;2418;49.930;8.606;2022-12-15T04:05:08;35.17;;;20.33;;
4808;SDS011;2418;49.930;8.606;2022-12-15T04:07:49;38.08;;;20.13;;
4808;SDS011;2418;49.930;8.606;2022-12-15T04:10:16;36.45;;;19.90;;
4808;SDS011;2418;49.930;8.606;2022-12-15T04:12:41;35.22;;;19.95;;
4808;SDS011;2418;49.930;8.606;2022-12-15T04:15:08;29.33;;;18.67;;
4808;SDS011;2418;49.930;8.606;2022-12-15T04:17:35;31.45;;;19.48;;
4808;SDS011;2418;49.930;8.606;2022-12-15T04:20:01;33.10;;;20.00;;
4808;SDS011;2418;49.930;8.606;2022-12-15T04:22:37;31.15;;;18.25;;
4808;SDS011;2418;49.930;8.606;2022-12-15T04:25:09;31.90;;;18.98;;
4808;SDS011;2418;49.930;8.606;2022-12-15T04:27:55;33.72;;;19.70;;
4808;SDS011;2418;49.930;8.606;2022-12-15T04:30:41;31.65;;;19.88;;
4808;SDS011;2418;49.930;8.606;2022-12-15T04:33:28;36.83;;;19.88;;
4808;SDS011;2418;49.930;8.606;2022-12-15T04:36:13;34.45;;;20.75;;
4808;SDS011;2418;49.930;8.606;2022-12-15T04:38:58;34.67;;;20.50;;
4808;SDS011;2418;49.930;8.606;2022-12-15T04:41:43;36.50;;;19.80;;
4808;SDS011;2418;49.930;8.606;2022-12-15T04:44:27;41.35;;;21.35;;
4808;SDS011;2418;49.930;8.606;2022-12-15T04:47:13;34.78;;;20.13;;
4808;SDS011;2418;49.930;8.606;2022-12-15T04:49:57;33.87;;;19.20;;
4808;SDS011;2418;49.930;8.606;2022-12-15T04:52:41;36.67;;;20.63;;
4808;SDS011;2418;49.930;8.606;2022-12-15T04:55:25;36.28;;;20.73;;
4808;SDS011;2418;49.930;8.606;2022-12-15T04:58:09;38.35;;;20.35;;
4808;SDS011;2418;49.930;8.606;2022-12-15T05:00:55;32.97;;;20.30;;
4808;SDS011;2418;49.930;8.606;2022-12-15T05:03:40;36.50;;;19.52;;
4808;SDS011;2418;49.930;8.606;2022-12-15T05:06:25;34.70;;;20.57;;
4808;SDS011;2418;49.930;8.606;2022-12-15T05:09:09;37.20;;;21.08;;
4808;SDS011;2418;49.930;8.606;2022-12-15T05:11:53;34.88;;;19.02;;
4808;SDS011;2418;49.930;8.606;2022-12-15T05:14:37;31.92;;;19.83;;
4808;SDS011;2418;49.930;8.606;2022-12-15T05:17:21;33.53;;;19.90;;
4808;SDS011;2418;49.930;8.606;2022-12-15T05:20:05;36.27;;;21.50;;
4808;SDS011;2418;49.930;8.606;2022-12-15T05:22:53;35.80;;;20.55;;
4808;SDS011;2418;49.930;8.606;2022-12-15T05:25:41;36.88;;;19.88;;
4808;SDS011;2418;49.930;8.606;2022-12-15T05:28:25;38.67;;;22.30;;
4808;SDS011;2418;49.930;8.606;2022-12-15T05:31:10;38.70;;;20.97;;
4808;SDS011;2418;49.930;8.606;2022-12-15T05:33:55;37.38;;;20.33;;
4808;SDS011;2418;49.930;8.606;2022-12-15T05:36:21;35.67;;;20.52;;
4808;SDS011;2418;49.930;8.606;2022-12-15T05:38:49;38.40;;;22.00;;
4808;SDS011;2418;49.930;8.606;2022-12-15T05:41:16;35.58;;;21.30;;
4808;SDS011;2418;49.930;8.606;2022-12-15T05:43:43;37.85;;;21.17;;
4808;SDS011;2418;49.930;8.606;2022-12-15T05:46:09;37.25;;;21.40;;
4808;SDS011;2418;49.930;8.606;2022-12-15T05:48:34;41.35;;;22.25;;
4808;SDS011;2418;49.930;8.606;2022-12-15T05:51:07;39.33;;;22.63;;
4808;SDS011;2418;49.930;8.606;2022-12-15T05:53:35;41.30;;;22.40;;
4808;SDS011;2418;49.930;8.606;2022-12-15T05:56:05;38.75;;;22.33;;
4808;SDS011;2418;49.930;8.606;2022-12-15T05:58:32;46.40;;;23.80;;
4808;SDS011;2418;49.930;8.606;2022-12-15T06:01:02;43.03;;;22.25;;
4808;SDS011;2418;49.930;8.606;2022-12-15T06:03:38;42.83;;;22.10;;
4808;SDS011;2418;49.930;8.606;2022-12-15T06:06:05;38.05;;;23.10;;
4808;SDS011;2418;49.930;8.606;2022-12-15T06:08:33;39.70;;;23.52;;
4808;SDS011;2418;49.930;8.606;2022-12-15T06:11:00;40.40;;;23.33;;
4808;SDS011;2418;49.930;8.606;2022-12-15T06:13:27;37.23;;;20.80;;
4808;SDS011;2418;49.930;8.606;2022-12-15T06:18:37;39.67;;;21.33;;
4808;SDS011;2418;49.930;8.606;2022-12-15T06:21:04;35.20;;;22.13;;
4808;SDS011;2418;49.930;8.606;2022-12-15T06:23:32;39.42;;;22.85;;
4808;SDS011;2418;49.930;8.606;2022-12-15T06:25:58;40.95;;;22.38;;
4808;SDS011;2418;49.930;8.606;2022-12-15T06:28:31;38.50;;;22.60;;
4808;SDS011;2418;49.930;8.606;2022-12-15T06:30:59;37.13;;;22.47;;
4808;SDS011;2418;49.930;8.606;2022-12-15T06:33:28;37.45;;;22.80;;
4808;SDS011;2418;49.930;8.606;2022-12-15T06:35:54;41.53;;;24.30;;
4808;SDS011;2418;49.930;8.606;2022-12-15T06:38:20;45.58;;;23.50;;
4808;SDS011;2418;49.930;8.606;2022-12-15T06:40:53;40.28;;;22.65;;
4808;SDS011;2418;49.930;8.606;2022-12-15T06:43:20;40.43;;;22.23;;
4808;SDS011;2418;49.930;8.606;2022-12-15T06:45:48;36.78;;;21.63;;
4808;SDS011;2418;49.930;8.606;2022-12-15T06:48:15;46.05;;;22.67;;
4808;SDS011;2418;49.930;8.606;2022-12-15T06:50:42;36.85;;;22.17;;
4808;SDS011;2418;49.930;8.606;2022-12-15T06:53:09;33.65;;;21.25;;
4808;SDS011;2418;49.930;8.606;2022-12-15T06:55:35;40.72;;;23.23;;
4808;SDS011;2418;49.930;8.606;2022-12-15T06:58:01;43.33;;;23.30;;
4808;SDS011;2418;49.930;8.606;2022-12-15T07:00:26;39.87;;;22.27;;
4808;SDS011;2418;49.930;8.606;2022-12-15T07:02:52;42.60;;;23.70;;
4808;SDS011;2418;49.930;8.606;2022-12-15T07:05:18;47.83;;;25.17;;
4808;SDS011;2418;49.930;8.606;2022-12-15T07:07:44;48.28;;;26.27;;
4808;SDS011;2418;49.930;8.606;2022-12-15T07:10:09;47.90;;;24.48;;
4808;SDS011;2418;49.930;8.606;2022-12-15T07:12:35;43.63;;;23.30;;
4808;SDS011;2418;49.930;8.606;2022-12-15T07:15:01;40.17;;;23.03;;
4808;SDS011;2418;49.930;8.606;2022-12-15T07:17:27;41.40;;;22.48;;
4808;SDS011;2418;49.930;8.606;2022-12-15T07:19:52;45.15;;;23.83;;
4808;SDS011;2418;49.930;8.606;2022-12-15T07:22:18;42.33;;;23.35;;
4808;SDS011;2418;49.930;8.606;2022-12-15T07:24:45;47.03;;;25.02;;
4808;SDS011;2418;49.930;8.606;2022-12-15T07:27:11;44.53;;;23.88;;
4808;SDS011;2418;49.930;8.606;2022-12-15T07:29:38;44.70;;;24.83;;
4808;SDS011;2418;49.930;8.606;2022-12-15T07:32:03;46.47;;;25.38;;
4808;SDS011;2418;49.930;8.606;2022-12-15T07:34:29;48.03;;;26.10;;
4808;SDS011;2418;49.930;8.606;2022-12-15T07:36:55;43.28;;;24.20;;
4808;SDS011;2418;49.930;8.606;2022-12-15T07:39:21;51.53;;;26.17;;
4808;SDS011;2418;49.930;8.606;2022-12-15T07:41:48;46.63;;;26.13;;
4808;SDS011;2418;49.930;8.606;2022-12-15T07:44:14;53.35;;;28.58;;
4808;SDS011;2418;49.930;8.606;2022-12-15T07:46:39;51.95;;;27.40;;
4808;SDS011;2418;49.930;8.606;2022-12-15T07:49:05;53.13;;;27.20;;
4808;SDS011;2418;49.930;8.606;2022-12-15T07:51:31;53.83;;;27.47;;
4808;SDS011;2418;49.930;8.606;2022-12-15T07:53:56;55.30;;;28.90;;
4808;SDS011;2418;49.930;8.606;2022-12-15T07:56:23;54.43;;;28.70;;
4808;SDS011;2418;49.930;8.606;2022-12-15T07:58:49;61.55;;;32.35;;
4808;SDS011;2418;49.930;8.606;2022-12-15T08:01:15;62.33;;;31.63;;
4808;SDS011;2418;49.930;8.606;2022-12-15T08:03:41;61.17;;;30.92;;
4808;SDS011;2418;49.930;8.606;2022-12-15T08:06:07;61.78;;;29.80;;
4808;SDS011;2418;49.930;8.606;2022-12-15T08:08:35;61.97;;;32.25;;
4808;SDS011;2418;49.930;8.606;2022-12-15T08:11:11;62.00;;;30.02;;
4808;SDS011;2418;49.930;8.606;2022-12-15T08:13:38;64.05;;;31.65;;
4808;SDS011;2418;49.930;8.606;2022-12-15T08:16:05;65.95;;;32.10;;
4808;SDS011;2418;49.930;8.606;2022-12-15T08:18:30;63.70;;;31.93;;
4808;SDS011;2418;49.930;8.606;2022-12-15T08:21:06;57.90;;;30.05;;
4808;SDS011;2418;49.930;8.606;2022-12-15T08:23:34;63.50;;;32.30;;
4808;SDS011;2418;49.930;8.606;2022-12-15T08:26:04;66.50;;;31.85;;
4808;SDS011;2418;49.930;8.606;2022-12-15T08:28:35;66.68;;;29.70;;
4808;SDS011;2418;49.930;8.606;2022-12-15T08:31:03;66.25;;;32.28;;
4808;SDS011;2418;49.930;8.606;2022-12-15T08:33:30;70.90;;;32.13;;
4808;SDS011;2418;49.930;8.606;2022-12-15T08:35:57;69.27;;;30.70;;
4808;SDS011;2418;49.930;8.606;2022-12-15T08:38:23;64.60;;;32.50;;
4808;SDS011;2418;49.930;8.606;2022-12-15T08:40:49;62.57;;;31.23;;
4808;SDS011;2418;49.930;8.606;2022-12-15T08:43:14;58.20;;;30.83;;
4808;SDS011;2418;49.930;8.606;2022-12-15T08:45:40;70.47;;;33.67;;
4808;SDS011;2418;49.930;8.606;2022-12-15T08:48:06;61.17;;;33.67;;
4808;SDS011;2418;49.930;8.606;2022-12-15T08:50:31;63.93;;;32.13;;
4808;SDS011;2418;49.930;8.606;2022-12-15T08:52:57;61.13;;;30.27;;
4808;SDS011;2418;49.930;8.606;2022-12-15T08:55:22;53.43;;;28.60;;
4808;SDS011;2418;49.930;8.606;2022-12-15T08:57:49;51.75;;;27.90;;
4808;SDS011;2418;49.930;8.606;2022-12-15T09:00:15;51.77;;;28.77;;
4808;SDS011;2418;49.930;8.606;2022-12-15T09:02:42;57.75;;;30.10;;
4808;SDS011;2418;49.930;8.606;2022-12-15T09:05:08;47.13;;;26.92;;
4808;SDS011;2418;49.930;8.606;2022-12-15T09:07:34;54.55;;;29.08;;
4808;SDS011;2418;49.930;8.606;2022-12-15T09:09:59;53.25;;;27.45;;
4808;SDS011;2418;49.930;8.606;2022-12-15T09:12:25;56.00;;;27.65;;
4808;SDS011;2418;49.930;8.606;2022-12-15T09:14:51;52.60;;;26.90;;
4808;SDS011;2418;49.930;8.606;2022-12-15T09:17:16;56.67;;;29.53;;
4808;SDS011;2418;49.930;8.606;2022-12-15T09:19:42;60.33;;;30.30;;
4808;SDS011;2418;49.930;8.606;2022-12-15T09:22:08;60.15;;;29.48;;
4808;SDS011;2418;49.930;8.606;2022-12-15T09:24:33;49.08;;;27.27;;
4808;SDS011;2418;49.930;8.606;2022-12-15T09:26:59;54.97;;;27.37;;
4808;SDS011;2418;49.930;8.606;2022-12-15T09:29:25;50.57;;;25.60;;
4808;SDS011;2418;49.930;8.606;2022-12-15T09:31:50;49.63;;;25.50;;
4808;SDS011;2418;49.930;8.606;2022-12-15T09:34:16;55.67;;;28.63;;
4808;SDS011;2418;49.930;8.606;2022-12-15T09:36:42;57.55;;;29.90;;
4808;SDS011;2418;49.930;8.606;2022-12-15T09:39:08;59.13;;;30.20;;
4808;SDS011;2418;49.930;8.606;2022-12-15T09:41:36;54.65;;;28.98;;
4808;SDS011;2418;49.930;8.606;2022-12-15T09:44:05;58.13;;;30.60;;
4808;SDS011;2418;49.930;8.606;2022-12-15T09:49:15;61.20;;;29.98;;
4808;SDS011;2418;49.930;8.606;2022-12-15T09:52:03;56.80;;;29.87;;
4808;SDS011;2418;49.930;8.606;2022-12-15T09:54:36;55.20;;;28.77;;
4808;SDS011;2418;49.930;8.606;2022-12-15T09:57:20;55.67;;;29.23;;
4808;SDS011;2418;49.930;8.606;2022-12-15T10:08:23;58.07;;;31.67;;
4808;SDS011;2418;49.930;8.606;2022-12-15T10:11:03;53.50;;;29.33;;
4808;SDS011;2418;49.930;8.606;2022-12-15T10:13:39;58.67;;;31.23;;
4808;SDS011;2418;49.930;8.606;2022-12-15T10:19:13;60.00;;;33.25;;
4808;SDS011;2418;49.930;8.606;2022-12-15T10:21:51;60.03;;;30.63;;
4808;SDS011;2418;49.930;8.606;2022-12-15T10:24:18;57.25;;;31.50;;
4808;SDS011;2418;49.930;8.606;2022-12-15T10:26:52;56.80;;;32.40;;
4808;SDS011;2418;49.930;8.606;2022-12-15T10:29:42;57.58;;;29.85;;
4808;SDS011;2418;49.930;8.606;2022-12-15T10:34:45;55.35;;;30.45;;
4808;SDS011;2418;49.930;8.606;2022-12-15T10:37:12;57.58;;;29.23;;
4808;SDS011;2418;49.930;8.606;2022-12-15T10:39:42;50.60;;;28.73;;
4808;SDS011;2418;49.930;8.606;2022-12-15T10:42:11;52.85;;;31.08;;
4808;SDS011;2418;49.930;8.606;2022-12-15T10:44:42;52.60;;;29.00;;
4808;SDS011;2418;49.930;8.606;2022-12-15T10:47:18;48.03;;;26.10;;
4808;SDS011;2418;49.930;8.606;2022-12-15T10:49:45;49.10;;;26.85;;
4808;SDS011;2418;49.930;8.606;2022-12-15T10:52:19;48.40;;;27.80;;
4808;SDS011;2418;49.930;8.606;2022-12-15T10:54:46;45.00;;;26.50;;
4808;SDS011;2418;49.930;8.606;2022-12-15T10:57:18;42.20;;;25.10;;
4808;SDS011;2418;49.930;8.606;2022-12-15T10:59:45;50.60;;;26.85;;
4808;SDS011;2418;49.930;8.606;2022-12-15T11:04:54;47.72;;;27.35;;
4808;SDS011;2418;49.930;8.606;2022-12-15T11:07:40;51.85;;;27.33;;
4808;SDS011;2418;49.930;8.606;2022-12-15T11:10:13;47.97;;;26.93;;
4808;SDS011;2418;49.930;8.606;2022-12-15T11:15:42;51.88;;;29.10;;
4808;SDS011;2418;49.930;8.606;2022-12-15T11:21:03;46.33;;;26.23;;
4808;SDS011;2418;49.930;8.606;2022-12-15T11:26:43;44.60;;;26.75;;
4808;SDS011;2418;49.930;8.606;2022-12-15T11:29:32;45.95;;;26.70;;
4808;SDS011;2418;49.930;8.606;2022-12-15T11:32:12;49.83;;;25.65;;
4808;SDS011;2418;49.930;8.606;2022-12-15T11:34:43;50.78;;;26.90;;
4808;SDS011;2418;49.930;8.606;2022-12-15T11:37:18;45.20;;;27.02;;
4808;SDS011;2418;49.930;8.606;2022-12-15T11:48:34;51.40;;;25.58;;
4808;SDS011;2418;49.930;8.606;2022-12-15T12:04:19;46.65;;;26.58;;
4808;SDS011;2418;49.930;8.606;2022-12-15T12:07:02;48.22;;;27.55;;
4808;SDS011;2418;49.930;8.606;2022-12-15T12:09:40;51.35;;;28.27;;
4808;SDS011;2418;49.930;8.606;2022-12-15T12:12:29;41.83;;;23.30;;
4808;SDS011;2418;49.930;8.606;2022-12-15T12:17:42;50.70;;;30.23;;
4808;SDS011;2418;49.930;8.606;2022-12-15T12:20:24;59.20;;;32.45;;
4808;SDS011;2418;49.930;8.606;2022-12-15T12:23:01;55.88;;;31.30;;
4808;SDS011;2418;49.930;8.606;2022-12-15T12:25:34;57.53;;;31.67;;
4808;SDS011;2418;49.930;8.606;2022-12-15T12:28:18;46.78;;;28.10;;
4808;SDS011;2418;49.930;8.606;2022-12-15T12:30:48;51.55;;;28.52;;
4808;SDS011;2418;49.930;8.606;2022-12-15T12:35:43;56.00;;;30.38;;
4808;SDS011;2418;49.930;8.606;2022-12-15T12:38:17;56.20;;;29.23;;
4808;SDS011;2418;49.930;8.606;2022-12-15T12:43:24;54.85;;;30.50;;
4808;SDS011;2418;49.930;8.606;2022-12-15T12:45:58;54.05;;;29.90;;
4808;SDS011;2418;49.930;8.606;2022-12-15T12:48:37;56.53;;;29.55;;
4808;SDS011;2418;49.930;8.606;2022-12-15T12:51:18;51.03;;;27.85;;
4808;SDS011;2418;49.930;8.606;2022-12-15T12:53:56;56.47;;;28.40;;
4808;SDS011;2418;49.930;8.606;2022-12-15T12:56:33;53.65;;;27.98;;
4808;SDS011;2418;49.930;8.606;2022-12-15T13:01:55;44.50;;;24.23;;
4808;SDS011;2418;49.930;8.606;2022-12-15T13:04:40;42.30;;;22.60;;
4808;SDS011;2418;49.930;8.606;2022-12-15T13:10:11;42.78;;;24.23;;
4808;SDS011;2418;49.930;8.606;2022-12-15T13:12:47;57.13;;;28.45;;
4808;SDS011;2418;49.930;8.606;2022-12-15T13:15:57;55.80;;;29.70;;
4808;SDS011;2418;49.930;8.606;2022-12-15T13:18:18;54.42;;;28.45;;
4808;SDS011;2418;49.930;8.606;2022-12-15T13:20:49;52.28;;;28.05;;
4808;SDS011;2418;49.930;8.606;2022-12-15T13:28:17;60.45;;;31.30;;
4808;SDS011;2418;49.930;8.606;2022-12-15T13:34:28;58.42;;;31.83;;
4808;SDS011;2418;49.930;8.606;2022-12-15T13:36:46;55.72;;;29.05;;
4808;SDS011;2418;49.930;8.606;2022-12-15T13:44:15;54.67;;;27.05;;
4808;SDS011;2418;49.930;8.606;2022-12-15T13:46:48;50.83;;;26.95;;
4808;SDS011;2418;49.930;8.606;2022-12-15T13:49:25;46.20;;;23.92;;
4808;SDS011;2418;49.930;8.606;2022-12-15T13:52:09;51.03;;;23.10;;
4808;SDS011;2418;49.930;8.606;2022-12-15T13:54:38;47.03;;;24.70;;
4808;SDS011;2418;49.930;8.606;2022-12-15T13:57:13;46.40;;;22.90;;
4808;SDS011;2418;49.930;8.606;2022-12-15T13:59:47;51.55;;;24.83;;
4808;SDS011;2418;49.930;8.606;2022-12-15T14:02:22;45.65;;;23.95;;
4808;SDS011;2418;49.930;8.606;2022-12-15T14:07:57;50.40;;;25.05;;
4808;SDS011;2418;49.930;8.606;2022-12-15T14:13:21;57.45;;;27.63;;
4808;SDS011;2418;49.930;8.606;2022-12-15T14:15:50;47.65;;;25.20;;
4808;SDS011;2418;49.930;8.606;2022-12-15T14:20:56;59.30;;;28.58;;
4808;SDS011;2418;49.930;8.606;2022-12-15T14:23:24;60.25;;;29.70;;
4808;SDS011;2418;49.930;8.606;2022-12-15T14:28:30;56.42;;;26.85;;
4808;SDS011;2418;49.930;8.606;2022-12-15T14:31:10;53.10;;;26.92;;
4808;SDS011;2418;49.930;8.606;2022-12-15T14:33:37;47.83;;;25.17;;
4808;SDS011;2418;49.930;8.606;2022-12-15T14:36:06;42.97;;;22.25;;
4808;SDS011;2418;49.930;8.606;2022-12-15T14:43:50;47.67;;;21.05;;
4808;SDS011;2418;49.930;8.606;2022-12-15T14:46:21;49.35;;;25.08;;
4808;SDS011;2418;49.930;8.606;2022-12-15T14:48:56;55.78;;;24.58;;
4808;SDS011;2418;49.930;8.606;2022-12-15T14:51:43;54.05;;;24.70;;
4808;SDS011;2418;49.930;8.606;2022-12-15T14:54:56;54.35;;;25.65;;
4808;SDS011;2418;49.930;8.606;2022-12-15T14:57:11;52.60;;;25.40;;
4808;SDS011;2418;49.930;8.606;2022-12-15T14:59:45;57.25;;;26.45;;
4808;SDS011;2418;49.930;8.606;2022-12-15T15:04:52;60.10;;;29.88;;
4808;SDS011;2418;49.930;8.606;2022-12-15T15:07:42;66.80;;;33.03;;
4808;SDS011;2418;49.930;8.606;2022-12-15T15:10:20;66.95;;;31.13;;
4808;SDS011;2418;49.930;8.606;2022-12-15T15:12:48;54.35;;;26.95;;
4808;SDS011;2418;49.930;8.606;2022-12-15T15:15:16;64.97;;;29.15;;
4808;SDS011;2418;49.930;8.606;2022-12-15T15:17:48;59.35;;;29.63;;
4808;SDS011;2418;49.930;8.606;2022-12-15T15:20:20;70.40;;;37.10;;
4808;SDS011;2418;49.930;8.606;2022-12-15T15:25:36;61.40;;;27.73;;
4808;SDS011;2418;49.930;8.606;2022-12-15T15:31:21;54.30;;;25.95;;
4808;SDS011;2418;49.930;8.606;2022-12-15T15:33:51;60.78;;;27.33;;
4808;SDS011;2418;49.930;8.606;2022-12-15T15:36:18;64.93;;;29.70;;
4808;SDS011;2418;49.930;8.606;2022-12-15T15:38:45;55.65;;;27.23;;
4808;SDS011;2418;49.930;8.606;2022-12-15T15:41:15;57.40;;;27.53;;
4808;SDS011;2418;49.930;8.606;2022-12-15T15:43:42;55.97;;;27.50;;
4808;SDS011;2418;49.930;8.606;2022-12-15T15:46:09;72.93;;;38.75;;
4808;SDS011;2418;49.930;8.606;2022-12-15T15:48:40;58.78;;;27.67;;
4808;SDS011;2418;49.930;8.606;2022-12-15T15:51:12;63.08;;;29.10;;
4808;SDS011;2418;49.930;8.606;2022-12-15T15:53:38;63.13;;;29.77;;
4808;SDS011;2418;49.930;8.606;2022-12-15T15:56:04;70.00;;;33.83;;
4808;SDS011;2418;49.930;8.606;2022-12-15T15:58:33;61.85;;;29.83;;
4808;SDS011;2418;49.930;8.606;2022-12-15T16:00:59;69.07;;;37.90;;
4808;SDS011;2418;49.930;8.606;2022-12-15T16:03:25;87.23;;;54.50;;
4808;SDS011;2418;49.930;8.606;2022-12-15T16:05:51;66.50;;;32.70;;
4808;SDS011;2418;49.930;8.606;2022-12-15T16:08:18;72.72;;;40.85;;
4808;SDS011;2418;49.930;8.606;2022-12-15T16:10:48;68.20;;;33.92;;
4808;SDS011;2418;49.930;8.606;2022-12-15T16:13:14;63.03;;;30.48;;
4808;SDS011;2418;49.930;8.606;2022-12-15T16:15:42;59.63;;;28.02;;
4808;SDS011;2418;49.930;8.606;2022-12-15T16:18:08;55.17;;;27.73;;
4808;SDS011;2418;49.930;8.606;2022-12-15T16:20:34;71.63;;;33.17;;
4808;SDS011;2418;49.930;8.606;2022-12-15T16:23:14;69.95;;;32.80;;
4808;SDS011;2418;49.930;8.606;2022-12-15T16:25:45;67.70;;;31.58;;
4808;SDS011;2418;49.930;8.606;2022-12-15T16:28:18;66.40;;;30.90;;
4808;SDS011;2418;49.930;8.606;2022-12-15T16:30:45;58.90;;;28.48;;
4808;SDS011;2418;49.930;8.606;2022-12-15T16:33:12;75.45;;;38.20;;
4808;SDS011;2418;49.930;8.606;2022-12-15T16:35:39;53.80;;;27.88;;
4808;SDS011;2418;49.930;8.606;2022-12-15T16:38:05;78.10;;;34.83;;
4808;SDS011;2418;49.930;8.606;2022-12-15T16:40:54;69.10;;;31.10;;
4808;SDS011;2418;49.930;8.606;2022-12-15T16:43:21;70.67;;;32.57;;
4808;SDS011;2418;49.930;8.606;2022-12-15T16:45:49;67.80;;;29.30;;
4808;SDS011;2418;49.930;8.606;2022-12-15T16:48:16;71.85;;;30.98;;
4808;SDS011;2418;49.930;8.606;2022-12-15T16:50:43;72.85;;;31.77;;
4808;SDS011;2418;49.930;8.606;2022-12-15T16:53:58;76.45;;;34.13;;
4808;SDS011;2418;49.930;8.606;2022-12-15T16:56:04;75.07;;;35.13;;
4808;SDS011;2418;49.930;8.606;2022-12-15T16:58:32;76.35;;;35.30;;
4808;SDS011;2418;49.930;8.606;2022-12-15T17:00:59;72.93;;;32.70;;
4808;SDS011;2418;49.930;8.606;2022-12-15T17:03:24;82.40;;;38.53;;
4808;SDS011;2418;49.930;8.606;2022-12-15T17:05:54;86.10;;;39.53;;
4808;SDS011;2418;49.930;8.606;2022-12-15T17:08:42;75.47;;;37.22;;
4808;SDS011;2418;49.930;8.606;2022-12-15T17:11:14;78.78;;;37.20;;
4808;SDS011;2418;49.930;8.606;2022-12-15T17:13:43;88.82;;;39.67;;
4808;SDS011;2418;49.930;8.606;2022-12-15T17:16:12;79.22;;;37.63;;
4808;SDS011;2418;49.930;8.606;2022-12-15T17:18:38;76.38;;;35.30;;
4808;SDS011;2418;49.930;8.606;2022-12-15T17:21:05;75.22;;;35.28;;
4808;SDS011;2418;49.930;8.606;2022-12-15T17:23:52;79.18;;;34.72;;
4808;SDS011;2418;49.930;8.606;2022-12-15T17:26:27;80.20;;;35.03;;
4808;SDS011;2418;49.930;8.606;2022-12-15T17:28:57;70.45;;;33.85;;
4808;SDS011;2418;49.930;8.606;2022-12-15T17:31:26;69.10;;;32.78;;